Terminal Aerodrome Forecast
Issued by NWS Sterling, VA

Current Version | Previous Version | Graphics & Text | Print | Product List | Glossary On
Versions: 1 2 3 4 5 6 7 8 9 10 11 12 13 14 15 16 17 18 19 20 21 22 23 24 25 26 27 28 29 30 31
000
FTUS41 KLWX 031915 AAA
TAFIAD
TAF AMD
KIAD 031915Z 0319/0424 16008KT P6SM OVC035
      TEMPO 0320/0323 5SM -FZDZ OVC015
     FM040000 20010KT 4SM BR OVC010
     FM041000 25005KT 2SM -RA OVC004=

USA.gov is the U.S. government's official web portal to all federal, state and local government web resources and services.